createdAt,value
2022-12-24T00:01:09.616Z,97951.89
2022-12-24T00:03:38.015Z,97949.80
2022-12-24T00:06:19.036Z,97946.45
2022-12-24T00:08:46.786Z,97950.73
2022-12-24T00:11:14.632Z,97950.72
2022-12-24T00:13:42.453Z,97955.77
2022-12-24T00:16:10.534Z,97953.79
2022-12-24T00:18:45.229Z,97945.08
2022-12-24T00:21:15.595Z,97942.45
2022-12-24T00:23:43.934Z,97942.39
2022-12-24T00:26:13.231Z,97948.42
2022-12-24T00:28:41.650Z,97944.27
2022-12-24T00:31:15.089Z,97945.17
2022-12-24T00:33:42.949Z,97946.97
2022-12-24T00:36:10.715Z,97946.80
2022-12-24T00:38:38.705Z,97941.71
2022-12-24T00:41:24.694Z,97936.42
2022-12-24T00:43:54.440Z,97934.22
2022-12-24T00:46:23.381Z,97935.69
2022-12-24T00:48:51.224Z,97937.11
2022-12-24T00:51:19.897Z,97937.67
2022-12-24T00:53:47.988Z,97932.25
2022-12-24T00:56:16.030Z,97935.67
2022-12-24T00:58:43.757Z,97935.80
2022-12-24T01:01:11.812Z,97933.93
2022-12-24T01:03:39.528Z,97936.91
2022-12-24T01:06:09.983Z,97936.16
2022-12-24T01:08:37.859Z,97941.88
2022-12-24T01:11:06.601Z,97938.29
2022-12-24T01:13:35.268Z,97938.05
2022-12-24T01:16:03.810Z,97938.62
2022-12-24T01:18:31.469Z,97938.44
2022-12-24T01:21:01.844Z,97936.20
2022-12-24T01:23:30.556Z,97932.55
2022-12-24T01:26:02.457Z,97930.03
2022-12-24T01:28:30.262Z,97923.42
2022-12-24T01:30:58.016Z,97922.92
2022-12-24T01:33:29.006Z,97923.97
2022-12-24T01:35:56.762Z,97929.30
2022-12-24T01:38:24.396Z,97923.31
2022-12-24T01:41:10.513Z,97922.14
2022-12-24T01:43:38.211Z,97924.34
2022-12-24T01:46:26.869Z,97926.55
2022-12-24T01:48:57.058Z,97928.22
2022-12-24T01:51:32.879Z,97924.27
2022-12-24T01:54:10.407Z,97924.63
2022-12-24T01:56:43.921Z,97925.04
2022-12-24T01:59:13.476Z,97929.36
2022-12-24T02:01:41.204Z,97932.40
2022-12-24T02:04:18.654Z,97936.89
2022-12-24T02:06:46.291Z,97935.36
2022-12-24T02:09:13.881Z,97933.31
2022-12-24T02:11:44.608Z,97927.85
2022-12-24T02:14:13.505Z,97924.75
2022-12-24T02:16:59.714Z,97921.41
2022-12-24T02:19:42.110Z,97921.52
2022-12-24T02:22:21.459Z,97917.36
2022-12-24T02:25:14.214Z,97920.28
2022-12-24T02:27:44.552Z,97923.70
2022-12-24T02:30:18.914Z,97920.45
2022-12-24T02:33:04.003Z,97915.94
2022-12-24T02:35:56.653Z,97919.79
2022-12-24T02:38:46.966Z,97916.64
2022-12-24T02:41:23.449Z,97919.05
2022-12-24T02:43:52.413Z,97915.23
2022-12-24T02:46:26.702Z,97916.05
2022-12-24T02:48:55.393Z,97917.84
2022-12-24T02:51:24.988Z,97918.85
2022-12-24T02:53:53.031Z,97917.05
2022-12-24T02:56:39.387Z,97918.81
2022-12-24T02:59:19.465Z,97918.16
2022-12-24T03:02:06.159Z,97919.83
2022-12-24T03:04:39.947Z,97918.73
2022-12-24T03:07:23.572Z,97920.33
2022-12-24T03:10:12.652Z,97922.65
2022-12-24T03:12:50.713Z,97923.02
2022-12-24T03:15:21.578Z,97916.36
2022-12-24T03:17:50.491Z,97916.34
2022-12-24T03:20:21.872Z,97912.41
2022-12-24T03:22:49.564Z,97916.68
2022-12-24T03:25:17.535Z,97917.07
2022-12-24T03:27:46.057Z,97915.81
2022-12-24T03:30:15.554Z,97916.72
2022-12-24T03:32:43.191Z,97919.38
2022-12-24T03:35:11.533Z,97919.23
2022-12-24T03:37:39.205Z,97919.14
2022-12-24T03:40:07.733Z,97914.29
2022-12-24T03:42:35.433Z,97917.05
2022-12-24T03:45:03.503Z,97920.52
2022-12-24T03:47:31.538Z,97920.23
2022-12-24T03:49:59.229Z,97917.55
2022-12-24T03:52:26.861Z,97919.10
2022-12-24T03:54:54.495Z,97923.34
2022-12-24T03:57:22.245Z,97925.96
2022-12-24T03:59:49.884Z,97930.09
2022-12-24T04:02:17.735Z,97928.20
2022-12-24T04:04:45.686Z,97924.05
2022-12-24T04:07:13.348Z,97919.58
2022-12-24T04:09:41.123Z,97918.84
2022-12-24T04:12:09.010Z,97916.58
2022-12-24T04:14:36.729Z,97922.40
2022-12-24T04:17:04.573Z,97914.66
2022-12-24T04:19:32.267Z,97914.70
2022-12-24T04:21:59.887Z,97913.05
2022-12-24T04:24:27.624Z,97910.88
2022-12-24T04:26:55.292Z,97912.27
2022-12-24T04:29:23.051Z,97913.45
2022-12-24T04:31:50.769Z,97908.13
2022-12-24T04:34:18.485Z,97909.39
2022-12-24T04:36:46.111Z,97912.98
2022-12-24T04:39:13.831Z,97910.54
2022-12-24T04:41:41.451Z,97913.36
2022-12-24T04:44:09.407Z,97914.46
2022-12-24T04:46:37.123Z,97912.07
2022-12-24T04:49:04.743Z,97914.52
2022-12-24T04:51:32.461Z,97916.44
2022-12-24T04:54:00.480Z,97914.15
2022-12-24T04:56:30.676Z,97914.00
2022-12-24T04:58:59.728Z,97912.78
2022-12-24T05:01:32.644Z,97917.23
2022-12-24T05:04:01.631Z,97915.23
2022-12-24T05:06:31.573Z,97913.16
2022-12-24T05:08:59.977Z,97917.20
2022-12-24T05:11:28.202Z,97917.12
2022-12-24T05:13:55.924Z,97918.04
2022-12-24T05:16:24.497Z,97918.27
2022-12-24T05:18:52.827Z,97917.70
2022-12-24T05:21:22.631Z,97919.42
2022-12-24T05:24:10.258Z,97921.42
2022-12-24T05:26:38.153Z,97925.91
2022-12-24T05:29:08.764Z,97926.27
2022-12-24T05:31:36.467Z,97924.27
2022-12-24T05:34:04.194Z,97928.98
2022-12-24T05:36:32.013Z,97927.20
2022-12-24T05:38:59.936Z,97935.25
2022-12-24T05:41:28.106Z,97936.11
2022-12-24T05:43:56.076Z,97940.06
2022-12-24T05:46:24.966Z,97936.35
2022-12-24T05:48:53.788Z,97933.79
2022-12-24T05:51:22.485Z,97933.86
2022-12-24T05:53:50.980Z,97934.37
2022-12-24T05:56:21.618Z,97937.17
2022-12-24T05:58:49.928Z,97936.48
2022-12-24T06:01:18.093Z,97941.32
2022-12-24T06:03:45.878Z,97940.51
2022-12-24T06:06:19.052Z,97941.31
2022-12-24T06:08:48.014Z,97941.06
2022-12-24T06:11:19.654Z,97939.15
2022-12-24T06:13:47.333Z,97941.77
2022-12-24T06:16:17.519Z,97947.46
2022-12-24T06:18:45.847Z,97948.23
2022-12-24T06:21:13.574Z,97945.58
2022-12-24T06:23:42.975Z,97946.59
2022-12-24T06:26:13.651Z,97946.02
2022-12-24T06:28:41.936Z,97947.84
2022-12-24T06:31:12.903Z,97948.00
2022-12-24T06:33:40.958Z,97946.00
2022-12-24T06:36:16.850Z,97950.16
2022-12-24T06:38:46.203Z,97951.59
2022-12-24T06:41:14.628Z,97954.27
2022-12-24T06:43:46.797Z,97957.24
2022-12-24T06:46:15.745Z,97957.12
2022-12-24T06:48:45.285Z,97961.39
2022-12-24T06:51:14.341Z,97965.75
2022-12-24T06:53:42.115Z,97972.33
2022-12-24T06:56:12.402Z,97973.59
2022-12-24T06:58:41.001Z,97973.45
2022-12-24T07:01:11.731Z,97973.94
2022-12-24T07:03:40.375Z,97980.05
2022-12-24T07:06:16.340Z,97983.23
2022-12-24T07:08:44.029Z,97990.15
2022-12-24T07:11:11.730Z,97988.55
2022-12-24T07:13:39.455Z,97990.02
2022-12-24T07:16:07.432Z,97995.27
2022-12-24T07:18:35.339Z,97998.86
2022-12-24T07:21:04.683Z,98003.80
2022-12-24T07:23:32.384Z,98005.58
2022-12-24T07:26:02.247Z,98009.05
2022-12-24T07:28:30.597Z,98011.73
2022-12-24T07:30:58.786Z,98015.86
2022-12-24T07:33:27.112Z,98024.34
2022-12-24T07:36:02.896Z,98028.00
2022-12-24T07:38:31.619Z,98028.61
2022-12-24T07:40:59.417Z,98033.34
2022-12-24T07:43:27.909Z,98038.17
2022-12-24T07:45:59.013Z,98042.34
2022-12-24T07:48:28.205Z,98042.13
2022-12-24T07:50:57.149Z,98040.70
2022-12-24T07:53:28.461Z,98043.52
2022-12-24T07:55:56.250Z,98045.52
2022-12-24T07:58:24.483Z,98050.93
2022-12-24T08:00:59.580Z,98052.71
2022-12-24T08:03:27.842Z,98061.05
2022-12-24T08:05:55.821Z,98061.34
2022-12-24T08:08:23.486Z,98063.22
2022-12-24T08:10:51.732Z,98068.34
2022-12-24T08:13:19.512Z,98065.49
2022-12-24T08:15:47.299Z,98070.66
2022-12-24T08:18:14.940Z,98070.53
2022-12-24T08:20:42.688Z,98071.59
2022-12-24T08:23:10.447Z,98077.01
2022-12-24T08:25:38.489Z,98078.56
2022-12-24T08:28:06.832Z,98083.72
2022-12-24T08:30:34.876Z,98086.36
2022-12-24T08:33:03.037Z,98088.32
2022-12-24T08:35:31.028Z,98094.14
2022-12-24T08:37:58.688Z,98094.50
2022-12-24T08:40:26.513Z,98098.71
2022-12-24T08:42:54.122Z,98104.50
2022-12-24T08:45:22.038Z,98107.14
2022-12-24T08:47:49.722Z,98105.54
2022-12-24T08:50:17.529Z,98108.56
2022-12-24T08:52:45.188Z,98104.58
2022-12-24T08:55:12.830Z,98107.39
2022-12-24T08:57:40.471Z,98111.86
2022-12-24T09:00:09.604Z,98114.55
2022-12-24T09:02:37.412Z,98115.81
2022-12-24T09:05:05.539Z,98116.16
2022-12-24T09:07:33.398Z,98116.74
2022-12-24T09:10:01.083Z,98124.89
2022-12-24T09:12:28.821Z,98125.66
2022-12-24T09:15:02.990Z,98126.68
2022-12-24T09:17:31.815Z,98132.54
2022-12-24T09:19:59.492Z,98134.17
2022-12-24T09:22:27.208Z,98139.98
2022-12-24T09:24:54.934Z,98146.54
2022-12-24T09:27:22.651Z,98142.84
2022-12-24T09:29:50.316Z,98146.72
2022-12-24T09:32:18.765Z,98147.53
2022-12-24T09:34:46.722Z,98148.54
2022-12-24T09:37:14.495Z,98153.35
2022-12-24T09:39:42.187Z,98161.77
2022-12-24T09:42:19.145Z,98170.01
2022-12-24T09:45:01.810Z,98171.70
2022-12-24T09:47:42.603Z,98177.81
2022-12-24T09:51:00.218Z,98180.20
2022-12-24T09:53:54.752Z,98183.52
2022-12-24T09:56:38.958Z,98181.95
2022-12-24T09:59:11.967Z,98187.58
2022-12-24T10:01:39.694Z,98192.47
2022-12-24T10:04:13.915Z,98199.23
2022-12-24T10:06:44.358Z,98198.09
2022-12-24T10:09:20.815Z,98207.53
2022-12-24T10:12:02.145Z,98210.26
2022-12-24T10:14:48.711Z,98213.80
2022-12-24T10:17:34.522Z,98218.23
2022-12-24T10:20:04.867Z,98220.96
2022-12-24T10:22:35.678Z,98226.18
2022-12-24T10:25:15.053Z,98227.27
2022-12-24T10:27:42.781Z,98227.64
2022-12-24T10:30:19.872Z,98228.20
2022-12-24T10:32:49.609Z,98235.05
2022-12-24T10:35:17.245Z,98234.52
2022-12-24T10:37:47.641Z,98237.38
2022-12-24T10:40:45.076Z,98234.10
2022-12-24T10:43:17.245Z,98232.73
2022-12-24T10:45:57.199Z,98233.42
2022-12-24T10:48:30.668Z,98240.90
2022-12-24T10:51:13.333Z,98244.94
2022-12-24T10:53:54.536Z,98248.11
2022-12-24T10:56:22.281Z,98248.64
2022-12-24T10:58:54.670Z,98260.07
2022-12-24T11:01:43.394Z,98266.79
2022-12-24T11:04:20.656Z,98273.95
2022-12-24T11:07:12.237Z,98281.01
2022-12-24T11:09:43.493Z,98283.15
2022-12-24T11:12:20.050Z,98284.12
2022-12-24T11:14:48.431Z,98289.81
2022-12-24T11:17:21.255Z,98295.83
2022-12-24T11:19:50.285Z,98300.86
2022-12-24T11:22:21.587Z,98304.36
2022-12-24T11:25:03.824Z,98300.63
2022-12-24T11:27:42.192Z,98307.69
2022-12-24T11:30:15.999Z,98312.98
2022-12-24T11:33:04.798Z,98316.27
2022-12-24T11:35:33.937Z,98317.67
2022-12-24T11:38:05.105Z,98326.41
2022-12-24T11:40:37.308Z,98333.30
2022-12-24T11:43:12.711Z,98341.60
2022-12-24T11:45:53.365Z,98344.23
2022-12-24T11:48:28.909Z,98347.37
2022-12-24T11:50:59.024Z,98347.91
2022-12-24T11:53:45.209Z,98350.30
2022-12-24T11:56:25.561Z,98354.25
2022-12-24T11:58:56.541Z,98363.72
2022-12-24T12:01:33.770Z,98369.52
2022-12-24T12:04:05.602Z,98372.96
2022-12-24T12:06:40.256Z,98377.80
2022-12-24T12:09:19.709Z,98382.73
2022-12-24T12:11:51.871Z,98382.25
2022-12-24T12:14:27.894Z,98388.15
2022-12-24T12:17:22.114Z,98389.23
2022-12-24T12:20:13.734Z,98395.41
2022-12-24T12:22:50.881Z,98403.64
2022-12-24T12:25:52.303Z,98404.95
2022-12-24T12:28:28.565Z,98408.48
2022-12-24T12:31:11.896Z,98409.84
2022-12-24T12:33:48.485Z,98407.35
2022-12-24T12:36:19.453Z,98415.98
2022-12-24T12:38:47.275Z,98421.39
2022-12-24T12:41:17.833Z,98424.77
2022-12-24T12:44:09.145Z,98423.17
2022-12-24T12:46:58.397Z,98424.86
2022-12-24T12:49:44.475Z,98428.79
2022-12-24T12:52:17.085Z,98431.53
2022-12-24T12:55:24.100Z,98440.70
2022-12-24T12:57:54.938Z,98446.70
2022-12-24T13:00:23.683Z,98456.52
2022-12-24T13:02:51.598Z,98460.33
2022-12-24T13:05:38.370Z,98461.20
2022-12-24T13:08:32.545Z,98470.64
2022-12-24T13:11:21.392Z,98469.11
2022-12-24T13:13:58.226Z,98475.92
2022-12-24T13:17:08.572Z,98479.06
2022-12-24T13:19:44.103Z,98485.96
2022-12-24T13:22:16.335Z,98484.17
2022-12-24T13:24:54.475Z,98493.11
2022-12-24T13:27:33.436Z,98499.02
2022-12-24T13:30:27.617Z,98505.71
2022-12-24T13:32:55.405Z,98509.57
2022-12-24T13:35:22.976Z,98513.95
2022-12-24T13:37:51.900Z,98519.59
2022-12-24T13:40:25.878Z,98525.27
2022-12-24T13:43:00.160Z,98527.58
2022-12-24T13:45:33.489Z,98535.94
2022-12-24T13:48:02.528Z,98537.73
2022-12-24T13:50:50.134Z,98543.87
2022-12-24T13:53:41.539Z,98544.17
2022-12-24T13:56:22.148Z,98551.61
2022-12-24T13:58:52.744Z,98556.76
2022-12-24T14:01:23.766Z,98560.14
2022-12-24T14:03:55.160Z,98561.56
2022-12-24T14:06:28.813Z,98563.95
2022-12-24T14:09:05.719Z,98561.63
2022-12-24T14:11:53.327Z,98562.06
2022-12-24T14:14:31.153Z,98561.61
2022-12-24T14:17:05.896Z,98562.44
2022-12-24T14:19:45.218Z,98557.80
2022-12-24T14:22:35.177Z,98558.55
2022-12-24T14:25:23.246Z,98561.54
2022-12-24T14:27:59.356Z,98566.78
2022-12-24T14:30:29.386Z,98575.38
2022-12-24T14:32:57.377Z,98578.92
2022-12-24T14:35:37.412Z,98589.15
2022-12-24T14:38:13.156Z,98600.30
2022-12-24T14:40:54.936Z,98612.13
2022-12-24T14:43:46.372Z,98616.56
2022-12-24T14:46:54.247Z,98627.70
2022-12-24T14:49:45.899Z,98632.17
2022-12-24T14:52:54.488Z,98639.68
2022-12-24T14:55:42.798Z,98641.35
2022-12-24T14:58:41.927Z,98649.20
2022-12-24T15:01:34.089Z,98652.59
2022-12-24T15:04:06.027Z,98646.98
2022-12-24T15:06:36.579Z,98648.07
2022-12-24T15:09:04.621Z,98652.90
2022-12-24T15:11:32.436Z,98655.80
2022-12-24T15:14:00.757Z,98664.14
2022-12-24T15:16:33.649Z,98667.61
2022-12-24T15:19:05.583Z,98666.84
2022-12-24T15:21:37.613Z,98669.23
2022-12-24T15:24:05.930Z,98672.23
2022-12-24T15:26:36.517Z,98676.02
2022-12-24T15:29:17.409Z,98679.25
2022-12-24T15:31:45.029Z,98682.95
2022-12-24T15:34:37.243Z,98680.27
2022-12-24T15:37:11.053Z,98685.73
2022-12-24T15:39:40.013Z,98685.73
2022-12-24T15:42:14.776Z,98691.61
2022-12-24T15:44:51.053Z,98697.92
2022-12-24T15:47:21.342Z,98700.61
2022-12-24T15:49:50.626Z,98705.91
2022-12-24T15:52:24.237Z,98705.34
2022-12-24T15:54:57.694Z,98706.95
2022-12-24T15:57:33.828Z,98701.48
2022-12-24T16:00:04.308Z,98704.14
2022-12-24T16:02:40.049Z,98704.59
2022-12-24T16:05:27.995Z,98707.59
2022-12-24T16:08:07.747Z,98708.19
2022-12-24T16:10:43.760Z,98712.27
2022-12-24T16:13:24.330Z,98712.58
2022-12-24T16:15:57.797Z,98712.25
2022-12-24T16:18:33.420Z,98716.54
2022-12-24T16:21:01.884Z,98717.83
2022-12-24T16:23:36.618Z,98722.75
2022-12-24T16:26:04.799Z,98718.08
2022-12-24T16:28:32.865Z,98723.22
2022-12-24T16:31:00.644Z,98725.58
2022-12-24T16:33:29.054Z,98728.27
2022-12-24T16:35:57.056Z,98731.09
2022-12-24T16:38:24.720Z,98737.44
2022-12-24T16:40:52.675Z,98734.16
2022-12-24T16:43:39.286Z,98731.52
2022-12-24T16:46:07.250Z,98729.44
2022-12-24T16:48:37.512Z,98733.27
2022-12-24T16:51:05.363Z,98737.30
2022-12-24T16:53:33.048Z,98742.86
2022-12-24T16:56:00.830Z,98744.64
2022-12-24T16:58:29.542Z,98749.06
2022-12-24T17:00:58.576Z,98755.75
2022-12-24T17:03:26.439Z,98757.06
2022-12-24T17:05:54.339Z,98753.38
2022-12-24T17:08:21.955Z,98756.59
2022-12-24T17:10:51.936Z,98761.52
2022-12-24T17:13:19.715Z,98765.66
2022-12-24T17:15:47.403Z,98766.58
2022-12-24T17:18:15.086Z,98769.47
2022-12-24T17:20:42.792Z,98768.58
2022-12-24T17:23:10.821Z,98780.13
2022-12-24T17:25:38.432Z,98782.67
2022-12-24T17:28:06.150Z,98782.88
2022-12-24T17:30:33.778Z,98782.34
2022-12-24T17:33:01.555Z,98780.33
2022-12-24T17:35:29.294Z,98785.84
2022-12-24T17:37:56.965Z,98785.08
2022-12-24T17:40:24.602Z,98784.94
2022-12-24T17:42:52.482Z,98786.06
2022-12-24T17:45:20.285Z,98788.98
2022-12-24T17:47:47.958Z,98789.33
2022-12-24T17:50:15.995Z,98799.98
2022-12-24T17:52:43.699Z,98805.59
2022-12-24T17:55:11.494Z,98807.23
2022-12-24T17:57:39.462Z,98807.52
2022-12-24T18:00:08.344Z,98809.31
2022-12-24T18:02:36.652Z,98815.60
2022-12-24T18:05:05.127Z,98815.86
2022-12-24T18:07:32.830Z,98816.50
2022-12-24T18:10:00.521Z,98820.70
2022-12-24T18:12:28.278Z,98826.83
2022-12-24T18:14:56.205Z,98832.27
2022-12-24T18:17:23.843Z,98841.69
2022-12-24T18:19:51.471Z,98845.10
2022-12-24T18:22:19.205Z,98847.06
2022-12-24T18:24:46.901Z,98842.08
2022-12-24T18:27:14.679Z,98840.27
2022-12-24T18:29:42.460Z,98841.50
2022-12-24T18:32:10.146Z,98845.44
2022-12-24T18:34:37.965Z,98855.29
2022-12-24T18:37:05.677Z,98859.73
2022-12-24T18:39:33.495Z,98863.38
2022-12-24T18:42:01.115Z,98863.48
2022-12-24T18:44:28.841Z,98860.58
2022-12-24T18:46:56.516Z,98858.98
2022-12-24T18:49:24.239Z,98854.19
2022-12-24T18:51:51.911Z,98849.52
2022-12-24T18:54:19.539Z,98850.42
2022-12-24T18:56:50.720Z,98854.89
2022-12-24T18:59:18.407Z,98864.83
2022-12-24T19:01:46.177Z,98867.91
2022-12-24T19:04:16.997Z,98867.05
2022-12-24T19:06:52.489Z,98871.14
2022-12-24T19:09:21.772Z,98881.88
2022-12-24T19:11:49.506Z,98885.02
2022-12-24T19:14:20.052Z,98885.80
2022-12-24T19:16:47.783Z,98894.32
2022-12-24T19:19:15.468Z,98894.45
2022-12-24T19:21:46.116Z,98895.39
2022-12-24T19:24:14.403Z,98898.75
2022-12-24T19:26:42.155Z,98900.20
2022-12-24T19:29:09.810Z,98901.32
2022-12-24T19:31:37.549Z,98897.05
2022-12-24T19:34:05.329Z,98897.23
2022-12-24T19:36:34.663Z,98898.98
2022-12-24T19:39:02.374Z,98903.64
2022-12-24T19:41:30.694Z,98900.84
2022-12-24T19:44:00.520Z,98899.20
2022-12-24T19:46:31.339Z,98897.18
2022-12-24T19:49:05.000Z,98900.09
2022-12-24T19:51:33.960Z,98905.98
2022-12-24T19:54:02.250Z,98915.77
2022-12-24T19:56:31.524Z,98923.90
2022-12-24T19:58:59.839Z,98929.59
2022-12-24T20:01:30.191Z,98930.59
2022-12-24T20:03:58.877Z,98933.80
2022-12-24T20:06:30.395Z,98935.32
2022-12-24T20:09:00.182Z,98936.86
2022-12-24T20:11:28.700Z,98939.23
2022-12-24T20:14:01.060Z,98942.13
2022-12-24T20:16:29.758Z,98946.20
2022-12-24T20:18:59.595Z,98953.00
2022-12-24T20:21:27.601Z,98959.79
2022-12-24T20:23:55.623Z,98959.85
2022-12-24T20:26:26.652Z,98961.48
2022-12-24T20:28:54.301Z,98962.66
2022-12-24T20:31:26.129Z,98971.46
2022-12-24T20:33:53.939Z,98978.16
2022-12-24T20:36:23.020Z,98978.38
2022-12-24T20:38:51.026Z,98971.79
2022-12-24T20:41:21.934Z,98974.64
2022-12-24T20:43:49.842Z,98974.55
2022-12-24T20:46:19.710Z,98967.95
2022-12-24T20:48:47.881Z,98975.95
2022-12-24T20:51:25.204Z,98980.92
2022-12-24T20:53:55.418Z,98978.27
2022-12-24T20:56:24.639Z,98981.53
2022-12-24T20:58:52.738Z,98976.66
2022-12-24T21:01:24.468Z,98978.73
2022-12-24T21:03:54.108Z,98979.81
2022-12-24T21:06:23.383Z,98980.67
2022-12-24T21:08:52.501Z,98980.59
2022-12-24T21:11:39.531Z,98981.56
2022-12-24T21:14:07.350Z,98985.64
2022-12-24T21:16:36.035Z,98988.30
2022-12-24T21:19:04.639Z,98990.63
2022-12-24T21:21:32.884Z,98992.07
2022-12-24T21:24:01.116Z,98995.44
2022-12-24T21:26:28.958Z,98995.88
2022-12-24T21:28:56.748Z,98997.34
2022-12-24T21:31:24.620Z,99002.66
2022-12-24T21:33:52.408Z,98998.75
2022-12-24T21:36:20.978Z,99001.83
2022-12-24T21:38:48.783Z,99002.58
2022-12-24T21:41:19.024Z,98998.88
2022-12-24T21:43:46.719Z,98998.21
2022-12-24T21:46:22.111Z,98995.04
2022-12-24T21:49:09.807Z,98993.52
2022-12-24T21:51:38.803Z,98995.33
2022-12-24T21:54:25.574Z,98993.83
2022-12-24T21:57:14.572Z,99001.91
2022-12-24T21:59:42.834Z,99005.67
2022-12-24T22:02:15.544Z,99004.98
2022-12-24T22:04:43.915Z,99007.34
2022-12-24T22:07:45.002Z,99007.46
2022-12-24T22:10:32.410Z,99002.13
2022-12-24T22:13:01.089Z,99003.54
2022-12-24T22:15:28.831Z,99003.05
2022-12-24T22:17:56.505Z,99003.77
2022-12-24T22:20:24.621Z,99005.64
2022-12-24T22:22:52.313Z,98999.71
2022-12-24T22:25:20.100Z,99002.25
2022-12-24T22:27:47.765Z,98998.06
2022-12-24T22:30:15.591Z,98996.88
2022-12-24T22:32:43.222Z,98988.29
2022-12-24T22:35:11.838Z,98993.05
2022-12-24T22:37:39.553Z,98995.75
2022-12-24T22:40:08.586Z,98990.98
2022-12-24T22:42:36.791Z,98990.48
2022-12-24T22:45:05.571Z,98993.52
2022-12-24T22:47:34.180Z,98999.70
2022-12-24T22:50:01.883Z,98995.58
2022-12-24T22:52:32.359Z,98999.53
2022-12-24T22:55:00.460Z,98997.48
2022-12-24T22:57:28.634Z,99005.03
2022-12-24T22:59:56.341Z,99009.29
2022-12-24T23:02:28.236Z,99015.70
2022-12-24T23:04:57.529Z,99022.19
2022-12-24T23:07:25.193Z,99014.38
2022-12-24T23:09:52.858Z,99022.84
2022-12-24T23:12:40.547Z,99028.67
2022-12-24T23:15:08.800Z,99038.61
2022-12-24T23:17:36.451Z,99046.88
2022-12-24T23:20:04.871Z,99046.96
2022-12-24T23:22:32.595Z,99048.14
2022-12-24T23:25:00.459Z,99059.65
2022-12-24T23:27:28.168Z,99063.88
2022-12-24T23:29:55.911Z,99054.30
2022-12-24T23:32:23.669Z,99046.23
2022-12-24T23:34:51.395Z,99044.38
2022-12-24T23:37:19.009Z,99056.22
2022-12-24T23:39:46.728Z,99052.52
2022-12-24T23:42:14.404Z,99061.60
2022-12-24T23:44:42.336Z,99065.33
2022-12-24T23:47:10.020Z,99072.94
2022-12-24T23:49:37.660Z,99076.49
2022-12-24T23:52:05.382Z,99080.98
2022-12-24T23:54:33.062Z,99080.58
2022-12-24T23:57:00.846Z,99072.77
2022-12-24T23:59:28.643Z,99074.21
